createdAt,value
2018-12-18T00:00:26.188Z,3.80
2018-12-18T00:01:05.048Z,3.35
2018-12-18T00:01:45.393Z,3.40
2018-12-18T00:02:24.207Z,3.37
2018-12-18T00:03:03.606Z,3.33
2018-12-18T00:03:43.229Z,4.35
2018-12-18T00:04:24.854Z,4.53
2018-12-18T00:05:07.923Z,4.47
2018-12-18T00:05:47.984Z,3.92
2018-12-18T00:06:26.715Z,4.60
2018-12-18T00:07:05.692Z,4.70
2018-12-18T00:07:44.557Z,4.62
2018-12-18T00:08:25.408Z,4.55
2018-12-18T00:09:04.123Z,4.00
2018-12-18T00:09:42.295Z,4.05
2018-12-18T00:10:21.067Z,4.82
2018-12-18T00:11:04.267Z,4.22
2018-12-18T00:11:47.277Z,4.70
2018-12-18T00:12:25.630Z,4.90
2018-12-18T00:13:08.287Z,4.78
2018-12-18T00:13:48.037Z,4.72
2018-12-18T00:14:26.797Z,4.83
2018-12-18T00:15:05.573Z,4.20
2018-12-18T00:15:44.319Z,4.30
2018-12-18T00:16:23.003Z,4.30
2018-12-18T00:17:01.572Z,3.25
2018-12-18T00:17:42.067Z,4.60
2018-12-18T00:18:21.171Z,3.92
2018-12-18T00:18:59.955Z,4.72
2018-12-18T00:19:38.783Z,3.95
2018-12-18T00:20:17.325Z,3.70
2018-12-18T00:20:56.075Z,3.55
2018-12-18T00:21:35.888Z,3.33
2018-12-18T00:22:14.804Z,3.25
2018-12-18T00:22:53.385Z,3.50
2018-12-18T00:23:32.767Z,3.37
2018-12-18T00:24:12.412Z,3.30
2018-12-18T00:24:50.676Z,3.30
2018-12-18T00:25:29.648Z,2.70
2018-12-18T00:26:10.413Z,3.58
2018-12-18T00:26:50.597Z,3.10
2018-12-18T00:27:30.173Z,3.08
2018-12-18T00:28:08.612Z,3.25
2018-12-18T00:28:48.997Z,2.70
2018-12-18T00:29:27.452Z,2.83
2018-12-18T00:30:06.191Z,2.45
2018-12-18T00:30:44.508Z,2.58
2018-12-18T00:31:23.547Z,2.85
2018-12-18T00:32:03.060Z,2.98
2018-12-18T00:32:42.534Z,3.00
2018-12-18T00:33:23.079Z,2.65
2018-12-18T00:34:02.564Z,2.80
2018-12-18T00:34:41.519Z,1.80
2018-12-18T00:35:23.770Z,2.22
2018-12-18T00:36:02.152Z,2.33
2018-12-18T00:36:41.106Z,2.63
2018-12-18T00:37:19.991Z,2.08
2018-12-18T00:38:02.401Z,2.25
2018-12-18T00:38:41.402Z,1.97
2018-12-18T00:39:19.669Z,2.10
2018-12-18T00:39:58.356Z,2.20
2018-12-18T00:40:36.559Z,2.00
2018-12-18T00:41:15.577Z,2.35
2018-12-18T00:41:55.957Z,2.67
2018-12-18T00:42:41.717Z,1.80
2018-12-18T00:43:23.331Z,2.00
2018-12-18T00:44:11.685Z,2.08
2018-12-18T00:44:50.475Z,1.70
2018-12-18T00:45:28.944Z,1.45
2018-12-18T00:46:08.251Z,1.50
2018-12-18T00:46:46.352Z,1.67
2018-12-18T00:47:29.067Z,2.58
2018-12-18T00:48:07.751Z,1.85
2018-12-18T00:48:46.686Z,2.30
2018-12-18T00:49:25.243Z,1.40
2018-12-18T00:50:06.111Z,1.80
2018-12-18T00:50:44.880Z,1.60
2018-12-18T00:51:24.949Z,1.57
2018-12-18T00:52:04.107Z,1.72
2018-12-18T00:52:47.327Z,1.60
2018-12-18T00:53:26.168Z,2.00
2018-12-18T00:54:05.076Z,2.05
2018-12-18T00:54:43.351Z,1.60
2018-12-18T00:55:26.735Z,1.98
2018-12-18T00:56:05.928Z,1.37
2018-12-18T00:56:44.685Z,1.80
2018-12-18T00:57:24.173Z,1.87
2018-12-18T00:58:02.953Z,1.30
2018-12-18T00:58:43.265Z,1.30
2018-12-18T00:59:21.941Z,1.60
2018-12-18T01:00:00.539Z,1.82
2018-12-18T01:00:39.948Z,1.50
2018-12-18T01:01:18.452Z,2.52
2018-12-18T01:02:02.032Z,1.82
2018-12-18T01:02:40.196Z,1.73
2018-12-18T01:03:18.642Z,1.55
2018-12-18T01:03:57.372Z,1.92
2018-12-18T01:04:36.799Z,1.80
2018-12-18T01:05:15.676Z,1.98
2018-12-18T01:05:54.698Z,1.45
2018-12-18T01:06:34.427Z,1.55
2018-12-18T01:07:13.076Z,1.75
2018-12-18T01:07:53.489Z,1.45
2018-12-18T01:08:34.852Z,1.67
2018-12-18T01:09:13.655Z,1.87
2018-12-18T01:09:54.496Z,1.70
2018-12-18T01:10:34.628Z,1.80
2018-12-18T01:11:12.947Z,1.52
2018-12-18T01:11:52.609Z,1.70
2018-12-18T01:12:31.293Z,1.42
2018-12-18T01:13:09.897Z,1.52
2018-12-18T01:13:53.928Z,1.62
2018-12-18T01:14:36.346Z,1.42
2018-12-18T01:15:15.120Z,1.80
2018-12-18T01:15:54.108Z,1.30
2018-12-18T01:16:32.164Z,1.55
2018-12-18T01:17:11.680Z,1.52
2018-12-18T01:18:43.698Z,1.30
2018-12-18T01:19:22.619Z,1.32
2018-12-18T01:20:03.016Z,1.30
2018-12-18T01:20:41.911Z,1.40
2018-12-18T01:21:21.057Z,1.67
2018-12-18T01:22:05.154Z,1.60
2018-12-18T01:22:43.916Z,1.43
2018-12-18T01:23:22.481Z,1.50
2018-12-18T01:24:01.018Z,2.00
2018-12-18T01:24:39.504Z,1.60
2018-12-18T01:25:19.229Z,1.60
2018-12-18T01:26:01.463Z,1.40
2018-12-18T01:26:40.075Z,1.50
2018-12-18T01:27:19.492Z,1.45
2018-12-18T01:27:57.797Z,1.30
2018-12-18T01:28:36.914Z,1.30
2018-12-18T01:29:15.069Z,1.35
2018-12-18T01:29:53.872Z,1.50
2018-12-18T01:30:34.067Z,1.40
2018-12-18T01:31:13.864Z,1.25
2018-12-18T01:31:53.233Z,1.20
2018-12-18T01:32:35.227Z,1.42
2018-12-18T01:33:13.798Z,1.37
2018-12-18T01:33:59.116Z,1.60
2018-12-18T01:34:34.056Z,1.32
2018-12-18T01:35:12.790Z,1.30
2018-12-18T01:35:51.432Z,1.50
2018-12-18T01:36:29.926Z,1.50
2018-12-18T01:37:10.176Z,1.15
2018-12-18T01:37:49.237Z,1.50
2018-12-18T01:38:27.461Z,1.10
2018-12-18T01:39:09.479Z,1.55
2018-12-18T01:39:50.341Z,1.40
2018-12-18T01:40:30.353Z,1.00
2018-12-18T01:41:08.536Z,1.37
2018-12-18T01:41:47.238Z,1.40
2018-12-18T01:42:26.604Z,1.32
2018-12-18T01:43:06.200Z,1.12
2018-12-18T01:43:44.900Z,1.40
2018-12-18T01:44:23.482Z,1.35
2018-12-18T01:45:02.008Z,1.50
2018-12-18T01:45:40.727Z,1.42
2018-12-18T01:46:19.492Z,1.40
2018-12-18T01:46:57.891Z,1.30
2018-12-18T01:47:37.597Z,1.30
2018-12-18T01:48:16.807Z,1.10
2018-12-18T01:48:55.501Z,1.02
2018-12-18T01:49:33.740Z,1.50
2018-12-18T01:50:16.688Z,2.00
2018-12-18T01:50:55.494Z,1.25
2018-12-18T01:51:34.991Z,1.10
2018-12-18T01:52:14.368Z,1.15
2018-12-18T01:52:52.552Z,1.55
2018-12-18T01:53:30.776Z,1.10
2018-12-18T01:54:09.452Z,1.20
2018-12-18T01:54:48.212Z,1.20
2018-12-18T01:55:26.753Z,0.98
2018-12-18T01:56:05.520Z,1.15
2018-12-18T01:56:44.132Z,1.40
2018-12-18T01:57:22.906Z,1.30
2018-12-18T01:58:01.776Z,1.67
2018-12-18T01:58:42.758Z,1.90
2018-12-18T01:59:21.160Z,1.05
2018-12-18T01:59:59.780Z,1.50
2018-12-18T02:00:40.220Z,1.10
2018-12-18T02:01:20.117Z,1.45
2018-12-18T02:01:58.921Z,1.45
2018-12-18T02:02:38.248Z,1.60
2018-12-18T02:03:19.374Z,1.47
2018-12-18T02:03:58.080Z,1.50
2018-12-18T02:04:36.134Z,1.42
2018-12-18T02:05:14.943Z,1.35
2018-12-18T02:05:53.385Z,1.55
2018-12-18T02:07:05.078Z,1.32
2018-12-18T02:07:43.523Z,1.70
2018-12-18T02:08:21.969Z,1.50
2018-12-18T02:09:00.884Z,2.00
2018-12-18T02:09:39.326Z,1.70
2018-12-18T02:10:17.631Z,1.82
2018-12-18T02:10:57.697Z,1.40
2018-12-18T02:11:35.912Z,2.00
2018-12-18T02:12:14.120Z,1.77
2018-12-18T02:12:52.515Z,1.80
2018-12-18T02:13:32.356Z,1.70
2018-12-18T02:14:12.031Z,1.72
2018-12-18T02:14:50.456Z,1.90
2018-12-18T02:15:32.786Z,1.87
2018-12-18T02:16:11.847Z,1.75
2018-12-18T02:16:50.644Z,1.52
2018-12-18T02:17:30.004Z,2.08
2018-12-18T02:18:14.388Z,1.67
2018-12-18T02:18:52.552Z,2.00
2018-12-18T02:19:31.782Z,2.08
2018-12-18T02:20:13.437Z,1.65
2018-12-18T02:20:51.666Z,1.70
2018-12-18T02:21:30.351Z,1.70
2018-12-18T02:22:08.956Z,2.00
2018-12-18T02:22:47.827Z,1.90
2018-12-18T02:23:26.204Z,1.98
2018-12-18T02:24:15.019Z,2.37
2018-12-18T02:24:58.178Z,1.67
2018-12-18T02:25:36.656Z,2.12
2018-12-18T02:26:14.733Z,2.00
2018-12-18T02:26:53.054Z,2.10
2018-12-18T02:27:32.273Z,1.72
2018-12-18T02:28:11.266Z,2.20
2018-12-18T02:28:49.961Z,2.00
2018-12-18T02:29:28.869Z,1.95
2018-12-18T02:30:07.950Z,1.60
2018-12-18T02:30:46.435Z,1.80
2018-12-18T02:31:30.373Z,2.37
2018-12-18T02:32:08.436Z,2.02
2018-12-18T02:32:47.212Z,2.10
2018-12-18T02:33:27.316Z,1.77
2018-12-18T02:34:13.448Z,1.82
2018-12-18T02:34:48.443Z,2.10
2018-12-18T02:35:27.276Z,1.98
2018-12-18T02:36:07.532Z,2.30
2018-12-18T02:36:46.773Z,3.12
2018-12-18T02:37:25.388Z,2.95
2018-12-18T02:38:05.622Z,2.55
2018-12-18T02:38:44.120Z,2.83
2018-12-18T02:39:22.593Z,2.40
2018-12-18T02:40:00.989Z,3.00
2018-12-18T02:40:40.594Z,3.07
2018-12-18T02:41:19.768Z,3.70
2018-12-18T02:41:58.570Z,3.80
2018-12-18T02:42:40.186Z,3.77
2018-12-18T02:43:18.944Z,3.65
2018-12-18T02:43:58.271Z,4.00
2018-12-18T02:44:36.711Z,4.70
2018-12-18T02:45:14.975Z,3.72
2018-12-18T02:45:53.522Z,4.17
2018-12-18T02:46:32.210Z,4.60
2018-12-18T02:47:13.800Z,4.45
2018-12-18T02:47:53.793Z,4.85
2018-12-18T02:48:32.435Z,5.15
2018-12-18T02:49:14.732Z,5.80
2018-12-18T02:49:53.305Z,4.67
2018-12-18T02:50:31.960Z,5.58
2018-12-18T02:51:11.165Z,5.47
2018-12-18T02:51:49.564Z,5.70
2018-12-18T02:52:28.082Z,6.17
2018-12-18T02:53:06.613Z,7.47
2018-12-18T02:53:46.982Z,6.42
2018-12-18T02:54:26.279Z,6.65
2018-12-18T02:55:05.989Z,6.75
2018-12-18T02:55:44.558Z,8.43
2018-12-18T02:56:23.084Z,8.30
2018-12-18T02:57:01.795Z,8.60
2018-12-18T02:57:41.604Z,9.55
2018-12-18T02:58:25.332Z,9.90
2018-12-18T02:59:03.960Z,9.98
2018-12-18T02:59:42.791Z,10.93
2018-12-18T03:00:22.312Z,10.95
2018-12-18T03:01:01.627Z,10.65
2018-12-18T03:01:40.137Z,9.53
2018-12-18T03:02:18.777Z,10.65
2018-12-18T03:02:57.123Z,11.35
2018-12-18T03:03:36.000Z,9.60
2018-12-18T03:04:20.913Z,9.88
2018-12-18T03:04:58.472Z,9.58
2018-12-18T03:05:37.303Z,11.08
2018-12-18T03:06:15.599Z,9.08
2018-12-18T03:06:54.392Z,9.68
2018-12-18T03:07:35.890Z,8.15
2018-12-18T03:08:15.412Z,8.55
2018-12-18T03:08:54.215Z,7.80
2018-12-18T03:09:32.281Z,8.08
2018-12-18T03:10:13.032Z,8.73
2018-12-18T03:10:52.799Z,8.78
2018-12-18T03:11:34.055Z,8.23
2018-12-18T03:12:13.864Z,8.30
2018-12-18T03:12:52.949Z,7.55
2018-12-18T03:13:33.380Z,7.85
2018-12-18T03:14:15.704Z,8.18
2018-12-18T03:14:54.866Z,7.10
2018-12-18T03:15:33.328Z,8.35
2018-12-18T03:16:11.627Z,6.70
2018-12-18T03:16:49.853Z,6.95
2018-12-18T03:17:28.407Z,6.80
2018-12-18T03:18:07.539Z,6.28
2018-12-18T03:18:51.447Z,5.87
2018-12-18T03:19:32.850Z,6.72
2018-12-18T03:20:11.909Z,5.95
2018-12-18T03:20:52.365Z,6.17
2018-12-18T03:21:32.152Z,5.40
2018-12-18T03:22:10.782Z,6.33
2018-12-18T03:22:49.172Z,5.67
2018-12-18T03:23:28.638Z,5.58
2018-12-18T03:24:07.465Z,6.00
2018-12-18T03:24:45.795Z,6.70
2018-12-18T03:25:24.619Z,5.40
2018-12-18T03:26:03.085Z,5.45
2018-12-18T03:26:41.848Z,4.97
2018-12-18T03:27:20.296Z,5.25
2018-12-18T03:27:58.778Z,5.00
2018-12-18T03:28:37.241Z,5.90
2018-12-18T03:29:16.101Z,4.80
2018-12-18T03:29:54.772Z,5.05
2018-12-18T03:30:33.389Z,5.20
2018-12-18T03:31:11.955Z,5.42
2018-12-18T03:31:54.468Z,5.50
2018-12-18T03:32:37.423Z,4.15
2018-12-18T03:33:15.817Z,4.37
2018-12-18T03:33:55.715Z,4.97
2018-12-18T03:34:34.353Z,5.20
2018-12-18T03:35:13.057Z,5.83
2018-12-18T03:35:52.344Z,5.83
2018-12-18T03:36:32.894Z,5.47
2018-12-18T03:37:11.215Z,5.05
2018-12-18T03:37:49.942Z,4.95
2018-12-18T03:38:31.330Z,5.25
2018-12-18T03:39:10.935Z,4.92
2018-12-18T03:39:49.675Z,4.75
2018-12-18T03:40:28.249Z,5.03
2018-12-18T03:41:07.788Z,5.05
2018-12-18T03:41:47.530Z,5.10
2018-12-18T03:42:26.143Z,4.60
2018-12-18T03:43:04.654Z,5.30
2018-12-18T03:43:43.343Z,4.95
2018-12-18T03:44:22.002Z,5.20
2018-12-18T03:45:00.593Z,4.45
2018-12-18T03:45:39.001Z,5.17
2018-12-18T03:46:18.788Z,5.55
2018-12-18T03:46:57.485Z,5.70
2018-12-18T03:47:37.236Z,5.10
2018-12-18T03:48:15.373Z,5.30
2018-12-18T03:48:54.107Z,4.67
2018-12-18T03:49:32.525Z,4.67
2018-12-18T03:50:10.925Z,4.80
2018-12-18T03:50:49.708Z,4.92
2018-12-18T03:51:28.373Z,5.12
2018-12-18T03:52:06.977Z,5.45
2018-12-18T03:52:45.497Z,4.67
2018-12-18T03:53:24.077Z,4.47
2018-12-18T03:54:04.258Z,4.92
2018-12-18T03:54:44.874Z,4.60
2018-12-18T03:55:23.717Z,4.75
2018-12-18T03:56:02.905Z,4.25
2018-12-18T03:56:42.800Z,5.30
2018-12-18T03:57:21.221Z,4.65
2018-12-18T03:57:59.700Z,4.08
2018-12-18T03:58:38.272Z,4.10
2018-12-18T03:59:16.840Z,4.40
2018-12-18T03:59:55.777Z,4.03
2018-12-18T04:00:34.673Z,4.67
2018-12-18T04:01:13.612Z,4.40
2018-12-18T04:01:52.090Z,4.05
2018-12-18T04:02:30.764Z,4.10
2018-12-18T04:03:09.077Z,4.30
2018-12-18T04:03:47.419Z,4.55
2018-12-18T04:04:25.965Z,3.87
2018-12-18T04:05:04.677Z,4.60
2018-12-18T04:05:43.477Z,4.25
2018-12-18T04:06:22.830Z,4.10
2018-12-18T04:07:01.407Z,3.87
2018-12-18T04:07:42.975Z,4.53
2018-12-18T04:08:21.473Z,4.37
2018-12-18T04:08:59.487Z,4.60
2018-12-18T04:09:37.434Z,4.62
2018-12-18T04:10:15.783Z,4.45
2018-12-18T04:10:54.275Z,4.95
2018-12-18T04:11:33.394Z,4.33
2018-12-18T04:12:20.683Z,4.62
2018-12-18T04:12:59.182Z,4.70
2018-12-18T04:13:37.840Z,4.30
2018-12-18T04:14:16.636Z,5.00
2018-12-18T04:14:55.205Z,4.70
2018-12-18T04:15:33.520Z,5.00
2018-12-18T04:16:12.690Z,4.87
2018-12-18T04:16:51.953Z,6.10
2018-12-18T04:17:30.802Z,5.28
2018-12-18T04:18:09.549Z,5.25
2018-12-18T04:18:50.190Z,6.50
2018-12-18T04:19:29.179Z,5.40
2018-12-18T04:20:07.926Z,4.95
2018-12-18T04:20:46.321Z,5.28
2018-12-18T04:21:29.362Z,4.95
2018-12-18T04:22:07.904Z,5.50
2018-12-18T04:22:46.244Z,5.55
2018-12-18T04:23:25.382Z,6.00
2018-12-18T04:24:03.850Z,5.55
2018-12-18T04:24:42.175Z,6.10
2018-12-18T04:25:20.621Z,5.62
2018-12-18T04:25:59.338Z,5.75
2018-12-18T04:26:38.073Z,5.03
2018-12-18T04:27:17.029Z,6.10
2018-12-18T04:27:57.823Z,6.53
2018-12-18T04:28:36.473Z,6.37
2018-12-18T04:29:14.668Z,5.40
2018-12-18T04:29:53.294Z,6.45
2018-12-18T04:30:32.390Z,5.78
2018-12-18T04:31:12.181Z,5.87
2018-12-18T04:31:51.707Z,6.55
2018-12-18T04:32:30.818Z,7.50
2018-12-18T04:33:11.016Z,6.72
2018-12-18T04:33:50.168Z,6.58
2018-12-18T04:34:28.873Z,6.50
2018-12-18T04:35:17.541Z,6.33
2018-12-18T04:35:55.905Z,6.50
2018-12-18T04:36:34.613Z,6.30
2018-12-18T04:37:13.771Z,6.55
2018-12-18T04:37:54.770Z,6.92
2018-12-18T04:38:34.187Z,6.75
2018-12-18T04:39:12.895Z,7.05
2018-12-18T04:39:52.319Z,8.00
2018-12-18T04:40:31.647Z,6.87
2018-12-18T04:41:10.901Z,7.40
2018-12-18T04:41:49.527Z,7.42
2018-12-18T04:42:28.544Z,7.72
2018-12-18T04:43:07.324Z,7.37
2018-12-18T04:43:45.876Z,7.80
2018-12-18T04:44:27.219Z,7.47
2018-12-18T04:45:05.594Z,7.80
2018-12-18T04:45:44.215Z,8.33
2018-12-18T04:46:22.431Z,7.60
2018-12-18T04:47:03.062Z,8.20
2018-12-18T04:47:42.734Z,9.13
2018-12-18T04:48:21.385Z,8.00
2018-12-18T04:49:00.017Z,8.05
2018-12-18T04:49:41.150Z,7.30
2018-12-18T04:50:20.849Z,7.90
2018-12-18T04:50:59.655Z,8.25
2018-12-18T04:51:39.345Z,8.38
2018-12-18T04:52:18.242Z,8.90
2018-12-18T04:52:56.754Z,7.75
2018-12-18T04:53:38.828Z,8.18
2018-12-18T04:54:18.412Z,7.40
2018-12-18T04:54:57.632Z,7.45
2018-12-18T04:55:37.069Z,7.10
2018-12-18T04:56:17.888Z,7.17
2018-12-18T04:56:56.296Z,7.87
2018-12-18T04:57:38.009Z,8.70
2018-12-18T04:58:16.600Z,7.50
2018-12-18T04:58:55.264Z,8.70
2018-12-18T04:59:33.662Z,7.67
2018-12-18T05:00:12.734Z,8.20
2018-12-18T05:00:51.409Z,7.80
2018-12-18T05:01:30.079Z,7.58
2018-12-18T05:02:10.097Z,7.60
2018-12-18T05:02:51.427Z,6.95
2018-12-18T05:03:30.296Z,7.45
2018-12-18T05:04:09.090Z,7.85
2018-12-18T05:04:50.417Z,6.30
2018-12-18T05:05:31.130Z,7.25
2018-12-18T05:06:09.635Z,6.78
2018-12-18T05:06:48.319Z,6.72
2018-12-18T05:07:26.876Z,7.37
2018-12-18T05:08:07.666Z,6.92
2018-12-18T05:08:46.175Z,7.03
2018-12-18T05:09:24.808Z,6.30
2018-12-18T05:10:04.096Z,6.75
2018-12-18T05:10:42.568Z,5.70
2018-12-18T05:11:21.449Z,6.90
2018-12-18T05:12:00.416Z,6.30
2018-12-18T05:12:38.875Z,6.35
2018-12-18T05:13:17.408Z,6.62
2018-12-18T05:13:55.787Z,6.80
2018-12-18T05:14:34.315Z,6.65
2018-12-18T05:15:12.768Z,5.95
2018-12-18T05:15:51.235Z,6.22
2018-12-18T05:16:32.226Z,6.05
2018-12-18T05:17:10.908Z,6.65
2018-12-18T05:17:50.189Z,5.60
2018-12-18T05:18:30.793Z,6.35
2018-12-18T05:19:10.016Z,6.10
2018-12-18T05:19:48.371Z,6.10
2018-12-18T05:20:26.971Z,6.62
2018-12-18T05:21:10.426Z,5.83
2018-12-18T05:21:48.708Z,6.47
2018-12-18T05:22:27.627Z,5.33
2018-12-18T05:23:06.297Z,6.60
2018-12-18T05:23:44.640Z,6.20
2018-12-18T05:24:22.955Z,6.97
2018-12-18T05:25:02.133Z,5.70
2018-12-18T05:25:40.590Z,6.25
2018-12-18T05:26:19.033Z,5.97
2018-12-18T05:26:57.747Z,6.80
2018-12-18T05:27:37.203Z,6.17
2018-12-18T05:28:16.338Z,6.58
2018-12-18T05:28:55.001Z,7.35
2018-12-18T05:29:37.220Z,7.15
2018-12-18T05:30:16.974Z,7.42
2018-12-18T05:30:56.685Z,7.15
2018-12-18T05:31:36.235Z,7.10
2018-12-18T05:32:19.881Z,6.50
2018-12-18T05:32:59.230Z,6.78
2018-12-18T05:33:38.341Z,7.80
2018-12-18T05:34:19.530Z,7.15
2018-12-18T05:34:58.496Z,6.47
2018-12-18T05:35:37.648Z,7.60
2018-12-18T05:36:16.066Z,7.10
2018-12-18T05:36:58.608Z,7.47
2018-12-18T05:37:39.132Z,7.40
2018-12-18T05:38:17.877Z,6.60
2018-12-18T05:38:56.424Z,6.47
2018-12-18T05:39:36.482Z,7.28
2018-12-18T05:40:14.856Z,6.83
2018-12-18T05:40:54.427Z,8.05
2018-12-18T05:41:33.620Z,6.85
2018-12-18T05:42:12.680Z,8.05
2018-12-18T05:42:51.922Z,7.60
2018-12-18T05:43:35.332Z,7.65
2018-12-18T05:44:17.121Z,6.85
2018-12-18T05:44:56.400Z,7.78
2018-12-18T05:45:34.415Z,7.30
2018-12-18T05:46:14.498Z,7.65
2018-12-18T05:46:54.035Z,7.40
2018-12-18T05:47:33.329Z,7.03
2018-12-18T05:48:16.058Z,7.65
2018-12-18T05:48:54.935Z,7.58
2018-12-18T05:49:35.404Z,7.72
2018-12-18T05:50:14.431Z,7.42
2018-12-18T05:50:55.082Z,7.08
2018-12-18T05:51:34.477Z,7.78
2018-12-18T05:52:13.584Z,8.30
2018-12-18T05:52:53.085Z,7.37
2018-12-18T05:53:32.364Z,7.78
2018-12-18T05:54:11.639Z,7.15
2018-12-18T05:54:50.665Z,7.00
2018-12-18T05:55:30.534Z,8.25
2018-12-18T05:56:09.587Z,7.70
2018-12-18T05:56:48.664Z,7.92
2018-12-18T05:57:30.942Z,6.95
2018-12-18T05:58:09.852Z,8.05
2018-12-18T05:58:48.867Z,7.90
2018-12-18T05:59:27.489Z,7.97
2018-12-18T06:00:10.972Z,8.00
2018-12-18T06:00:49.775Z,8.33
2018-12-18T06:01:28.604Z,7.50
2018-12-18T06:02:07.712Z,6.85
2018-12-18T06:02:47.181Z,8.08
2018-12-18T06:03:26.054Z,6.85
2018-12-18T06:04:05.853Z,7.17
2018-12-18T06:04:45.019Z,7.17
2018-12-18T06:05:23.651Z,7.50
2018-12-18T06:06:03.088Z,7.35
2018-12-18T06:06:44.188Z,7.73
2018-12-18T06:07:22.433Z,8.03
2018-12-18T06:08:00.704Z,7.50
2018-12-18T06:08:40.412Z,7.90
2018-12-18T06:09:20.527Z,7.90
2018-12-18T06:09:59.336Z,8.30
2018-12-18T06:10:37.887Z,8.20
2018-12-18T06:11:20.181Z,8.83
2018-12-18T06:11:58.740Z,8.65
2018-12-18T06:12:37.211Z,8.33
2018-12-18T06:13:16.555Z,9.05
2018-12-18T06:13:55.374Z,8.80
2018-12-18T06:14:33.860Z,8.50
2018-12-18T06:15:12.657Z,8.65
2018-12-18T06:15:52.146Z,8.05
2018-12-18T06:16:30.745Z,9.10
2018-12-18T06:17:10.196Z,8.15
2018-12-18T06:17:51.519Z,9.08
2018-12-18T06:18:30.515Z,8.80
2018-12-18T06:19:09.812Z,8.00
2018-12-18T06:19:48.682Z,8.55
2018-12-18T06:20:28.137Z,7.70
2018-12-18T06:21:06.966Z,8.60
2018-12-18T06:21:45.764Z,8.88
2018-12-18T06:22:25.780Z,8.25
2018-12-18T06:23:05.562Z,8.38
2018-12-18T06:23:44.846Z,8.48
2018-12-18T06:24:24.318Z,8.08
2018-12-18T06:25:05.240Z,8.65
2018-12-18T06:25:45.071Z,8.50
2018-12-18T06:26:23.823Z,7.92
2018-12-18T06:27:03.381Z,8.53
2018-12-18T06:27:42.405Z,8.40
2018-12-18T06:28:21.339Z,8.35
2018-12-18T06:29:00.465Z,7.65
2018-12-18T06:29:38.460Z,8.63
2018-12-18T06:30:17.213Z,8.03
2018-12-18T06:30:56.352Z,7.17
2018-12-18T06:31:34.785Z,7.78
2018-12-18T06:32:12.921Z,7.55
2018-12-18T06:32:51.836Z,7.85
2018-12-18T06:33:32.313Z,8.50
2018-12-18T06:34:11.739Z,7.10
2018-12-18T06:34:51.087Z,7.65
2018-12-18T06:35:30.121Z,7.20
2018-12-18T06:36:11.467Z,6.75
2018-12-18T06:36:50.233Z,6.37
2018-12-18T06:37:29.154Z,7.35
2018-12-18T06:38:09.320Z,7.55
2018-12-18T06:38:48.729Z,7.05
2018-12-18T06:39:27.908Z,7.45
2018-12-18T06:40:06.823Z,6.67
2018-12-18T06:40:46.189Z,6.37
2018-12-18T06:41:24.744Z,6.70
2018-12-18T06:42:04.168Z,6.47
2018-12-18T06:42:47.527Z,7.50
2018-12-18T06:43:26.383Z,6.67
2018-12-18T06:44:05.137Z,7.12
2018-12-18T06:44:43.689Z,6.35
2018-12-18T06:45:24.593Z,7.72
2018-12-18T06:46:03.367Z,6.83
2018-12-18T06:46:41.530Z,7.00
2018-12-18T06:47:24.498Z,7.50
2018-12-18T06:48:03.877Z,6.47
2018-12-18T06:48:43.352Z,6.83
2018-12-18T06:49:24.364Z,6.78
2018-12-18T06:50:05.909Z,7.22
2018-12-18T06:50:46.790Z,6.67
2018-12-18T06:51:30.252Z,6.87
2018-12-18T06:52:08.913Z,6.08
2018-12-18T06:52:51.312Z,6.53
2018-12-18T06:53:30.592Z,6.35
2018-12-18T06:54:10.370Z,6.40
2018-12-18T06:54:49.837Z,6.37
2018-12-18T06:55:28.795Z,6.25
2018-12-18T06:56:07.772Z,6.70
2018-12-18T06:56:48.310Z,6.65
2018-12-18T06:57:27.430Z,5.70
2018-12-18T06:58:05.940Z,6.15
2018-12-18T06:58:45.127Z,6.50
2018-12-18T06:59:25.204Z,6.80
2018-12-18T07:00:06.124Z,6.00
2018-12-18T07:00:45.133Z,6.70
2018-12-18T07:01:24.811Z,6.30
2018-12-18T07:02:04.263Z,5.95
2018-12-18T07:02:47.295Z,5.20
2018-12-18T07:03:26.541Z,5.75
2018-12-18T07:04:06.720Z,6.25
2018-12-18T07:04:46.722Z,5.67
2018-12-18T07:05:25.823Z,6.15
2018-12-18T07:06:04.465Z,6.08
2018-12-18T07:06:43.796Z,6.37
2018-12-18T07:07:22.018Z,5.35
2018-12-18T07:08:00.475Z,5.60
2018-12-18T07:08:39.290Z,6.12
2018-12-18T07:09:19.433Z,5.17
2018-12-18T07:09:58.839Z,5.42
2018-12-18T07:10:37.492Z,5.90
2018-12-18T07:11:18.118Z,6.08
2018-12-18T07:11:57.862Z,5.97
2018-12-18T07:12:36.456Z,6.17
2018-12-18T07:13:14.663Z,7.37
2018-12-18T07:13:55.044Z,7.03
2018-12-18T07:14:33.380Z,5.90
2018-12-18T07:15:13.034Z,6.83
2018-12-18T07:15:51.611Z,6.15
2018-12-18T07:16:31.119Z,6.97
2018-12-18T07:17:09.420Z,6.22
2018-12-18T07:17:48.059Z,6.62
2018-12-18T07:18:28.343Z,6.95
2018-12-18T07:19:06.971Z,7.05
2018-12-18T07:19:45.394Z,6.35
2018-12-18T07:20:23.811Z,6.33
2018-12-18T07:21:02.544Z,6.12
2018-12-18T07:21:41.431Z,6.58
2018-12-18T07:22:20.360Z,6.55
2018-12-18T07:22:59.835Z,5.60
2018-12-18T07:23:38.980Z,6.45
2018-12-18T07:24:17.837Z,6.08
2018-12-18T07:24:57.496Z,5.90
2018-12-18T07:25:35.982Z,5.85
2018-12-18T07:26:14.747Z,6.17
2018-12-18T07:26:53.181Z,6.10
2018-12-18T07:27:33.319Z,5.78
2018-12-18T07:28:12.904Z,6.47
2018-12-18T07:28:52.296Z,5.50
2018-12-18T07:29:33.244Z,5.28
2018-12-18T07:30:15.263Z,5.65
2018-12-18T07:30:53.635Z,5.42
2018-12-18T07:31:32.013Z,4.75
2018-12-18T07:32:15.848Z,4.78
2018-12-18T07:32:54.913Z,5.20
2018-12-18T07:33:33.669Z,5.03
2018-12-18T07:34:12.357Z,4.70
2018-12-18T07:34:50.668Z,5.00
2018-12-18T07:35:29.284Z,5.20
2018-12-18T07:36:07.913Z,5.33
2018-12-18T07:36:47.776Z,5.22
2018-12-18T07:37:26.555Z,4.97
2018-12-18T07:38:05.294Z,5.45
2018-12-18T07:38:46.442Z,5.40
2018-12-18T07:39:25.094Z,4.40
2018-12-18T07:40:03.868Z,5.03
2018-12-18T07:40:43.503Z,5.03
2018-12-18T07:41:22.610Z,5.33
2018-12-18T07:42:01.395Z,4.67
2018-12-18T07:42:40.361Z,4.50
2018-12-18T07:43:19.149Z,5.45
2018-12-18T07:43:59.059Z,5.03
2018-12-18T07:44:38.702Z,4.87
2018-12-18T07:45:19.176Z,4.90
2018-12-18T07:45:57.900Z,5.00
2018-12-18T07:46:36.430Z,5.78
2018-12-18T07:47:15.187Z,5.40
2018-12-18T07:47:57.141Z,5.22
2018-12-18T07:48:35.700Z,4.80
2018-12-18T07:49:15.535Z,4.87
2018-12-18T07:49:55.003Z,4.75
2018-12-18T07:50:33.980Z,4.85
2018-12-18T07:51:12.669Z,5.35
2018-12-18T07:51:50.996Z,5.67
2018-12-18T07:52:29.684Z,5.03
2018-12-18T07:53:08.112Z,4.62
2018-12-18T07:53:47.308Z,5.17
2018-12-18T07:54:27.857Z,5.47
2018-12-18T07:55:06.314Z,5.47
2018-12-18T07:55:45.515Z,4.30
2018-12-18T07:56:25.983Z,4.75
2018-12-18T07:57:04.501Z,4.87
2018-12-18T07:57:43.857Z,4.65
2018-12-18T07:58:22.367Z,4.35
2018-12-18T07:59:00.901Z,4.50
2018-12-18T07:59:39.089Z,3.40
2018-12-18T08:00:17.798Z,4.28
2018-12-18T08:00:56.475Z,4.62
2018-12-18T08:01:35.342Z,4.53
2018-12-18T08:02:16.137Z,4.10
2018-12-18T08:03:00.052Z,4.12
2018-12-18T08:03:39.172Z,4.35
2018-12-18T08:04:17.421Z,3.60
2018-12-18T08:04:58.086Z,4.53
2018-12-18T08:05:36.993Z,4.70
2018-12-18T08:06:15.748Z,4.50
2018-12-18T08:06:54.335Z,3.92
2018-12-18T08:07:32.866Z,4.30
2018-12-18T08:08:12.612Z,4.45
2018-12-18T08:08:53.867Z,4.30
2018-12-18T08:09:35.553Z,4.53
2018-12-18T08:10:14.637Z,4.10
2018-12-18T08:10:52.809Z,3.98
2018-12-18T08:11:32.647Z,4.70
2018-12-18T08:12:11.466Z,4.33
2018-12-18T08:12:54.824Z,4.25
2018-12-18T08:13:37.671Z,4.60
2018-12-18T08:14:15.863Z,4.17
2018-12-18T08:14:55.181Z,4.40
2018-12-18T08:15:38.301Z,4.62
2018-12-18T08:16:16.881Z,3.95
2018-12-18T08:16:55.672Z,4.95
2018-12-18T08:17:34.459Z,4.25
2018-12-18T08:18:13.711Z,4.40
2018-12-18T08:18:52.504Z,4.30
2018-12-18T08:19:33.509Z,4.15
2018-12-18T08:20:12.158Z,4.25
2018-12-18T08:20:50.926Z,4.47
2018-12-18T08:21:33.308Z,4.60
2018-12-18T08:22:12.925Z,4.35
2018-12-18T08:22:51.809Z,4.50
2018-12-18T08:23:31.470Z,4.20
2018-12-18T08:24:10.621Z,4.97
2018-12-18T08:24:49.745Z,4.50
2018-12-18T08:25:28.655Z,4.00
2018-12-18T08:26:09.997Z,4.12
2018-12-18T08:26:49.439Z,3.60
2018-12-18T08:27:28.454Z,4.05
2018-12-18T08:28:07.589Z,3.83
2018-12-18T08:28:46.224Z,3.80
2018-12-18T08:29:24.813Z,4.28
2018-12-18T08:30:03.357Z,4.35
2018-12-18T08:30:42.177Z,3.92
2018-12-18T08:31:21.011Z,3.77
2018-12-18T08:31:59.620Z,4.15
2018-12-18T08:32:39.680Z,3.73
2018-12-18T08:33:18.475Z,4.40
2018-12-18T08:33:56.644Z,3.52
2018-12-18T08:34:36.898Z,4.83
2018-12-18T08:35:15.537Z,3.87
2018-12-18T08:35:55.073Z,4.00
2018-12-18T08:36:33.587Z,4.05
2018-12-18T08:37:14.638Z,4.00
2018-12-18T08:37:53.119Z,3.55
2018-12-18T08:38:32.497Z,4.00
2018-12-18T08:39:13.512Z,3.80
2018-12-18T08:39:51.715Z,3.55
2018-12-18T08:40:30.666Z,4.00
2018-12-18T08:41:09.196Z,3.80
2018-12-18T08:41:47.203Z,3.50
2018-12-18T08:42:25.121Z,4.47
2018-12-18T08:43:03.083Z,4.22
2018-12-18T08:43:42.718Z,3.75
2018-12-18T08:44:22.536Z,3.80
2018-12-18T08:45:01.650Z,3.90
2018-12-18T08:45:40.966Z,3.77
2018-12-18T08:46:19.586Z,4.30